sensor_id;sensor_type;location;lat;lon;timestamp;P1;durP1;ratioP1;P2;durP2;ratioP2
70761;SDS011;58360;0.000;0.000;2023-04-16T00:01:58;6.30;;;1.50;;
70761;SDS011;58360;0.000;0.000;2023-04-16T00:04:24;3.90;;;1.27;;
70761;SDS011;58360;0.000;0.000;2023-04-16T00:06:49;7.57;;;1.70;;
70761;SDS011;58360;0.000;0.000;2023-04-16T00:09:15;14.95;;;1.80;;
70761;SDS011;58360;0.000;0.000;2023-04-16T00:11:41;7.88;;;1.58;;
70761;SDS011;58360;0.000;0.000;2023-04-16T00:14:06;7.35;;;1.83;;
70761;SDS011;58360;0.000;0.000;2023-04-16T00:16:32;7.55;;;1.40;;
70761;SDS011;58360;0.000;0.000;2023-04-16T00:18:58;6.38;;;1.50;;
70761;SDS011;58360;0.000;0.000;2023-04-16T00:21:23;6.30;;;1.48;;
70761;SDS011;58360;0.000;0.000;2023-04-16T00:23:50;8.88;;;1.90;;
70761;SDS011;58360;0.000;0.000;2023-04-16T00:26:15;9.30;;;1.80;;
70761;SDS011;58360;0.000;0.000;2023-04-16T00:28:41;11.65;;;1.95;;
70761;SDS011;58360;0.000;0.000;2023-04-16T00:31:07;9.20;;;2.50;;
70761;SDS011;58360;0.000;0.000;2023-04-16T00:33:32;8.68;;;1.90;;
70761;SDS011;58360;0.000;0.000;2023-04-16T00:35:58;11.75;;;2.25;;
70761;SDS011;58360;0.000;0.000;2023-04-16T00:38:24;10.43;;;2.40;;
70761;SDS011;58360;0.000;0.000;2023-04-16T00:40:53;7.68;;;2.28;;
70761;SDS011;58360;0.000;0.000;2023-04-16T00:43:22;7.63;;;2.42;;
70761;SDS011;58360;0.000;0.000;2023-04-16T00:45:50;10.68;;;2.75;;
70761;SDS011;58360;0.000;0.000;2023-04-16T00:48:17;13.20;;;2.55;;
70761;SDS011;58360;0.000;0.000;2023-04-16T00:50:44;7.13;;;2.15;;
70761;SDS011;58360;0.000;0.000;2023-04-16T00:53:10;5.93;;;2.03;;
70761;SDS011;58360;0.000;0.000;2023-04-16T00:55:35;7.78;;;2.20;;
70761;SDS011;58360;0.000;0.000;2023-04-16T00:58:02;10.65;;;3.25;;
70761;SDS011;58360;0.000;0.000;2023-04-16T01:00:28;10.63;;;2.25;;
70761;SDS011;58360;0.000;0.000;2023-04-16T01:02:54;10.20;;;2.30;;
70761;SDS011;58360;0.000;0.000;2023-04-16T01:05:20;8.50;;;2.03;;
70761;SDS011;58360;0.000;0.000;2023-04-16T01:07:46;8.25;;;1.98;;
70761;SDS011;58360;0.000;0.000;2023-04-16T01:10:11;7.40;;;2.35;;
70761;SDS011;58360;0.000;0.000;2023-04-16T01:12:37;8.07;;;2.20;;
70761;SDS011;58360;0.000;0.000;2023-04-16T01:15:03;7.90;;;2.03;;
70761;SDS011;58360;0.000;0.000;2023-04-16T01:17:29;8.35;;;2.15;;
70761;SDS011;58360;0.000;0.000;2023-04-16T01:19:57;6.68;;;2.50;;
70761;SDS011;58360;0.000;0.000;2023-04-16T01:22:24;9.77;;;2.33;;
70761;SDS011;58360;0.000;0.000;2023-04-16T01:24:50;8.57;;;2.10;;
70761;SDS011;58360;0.000;0.000;2023-04-16T01:27:16;8.77;;;2.10;;
70761;SDS011;58360;0.000;0.000;2023-04-16T01:29:41;5.68;;;1.80;;
70761;SDS011;58360;0.000;0.000;2023-04-16T01:32:07;8.40;;;2.42;;
70761;SDS011;58360;0.000;0.000;2023-04-16T01:34:32;6.80;;;2.20;;
70761;SDS011;58360;0.000;0.000;2023-04-16T01:36:58;9.07;;;2.58;;
70761;SDS011;58360;0.000;0.000;2023-04-16T01:39:24;9.77;;;2.20;;
70761;SDS011;58360;0.000;0.000;2023-04-16T01:41:50;10.90;;;2.22;;
70761;SDS011;58360;0.000;0.000;2023-04-16T01:44:15;4.90;;;1.80;;
70761;SDS011;58360;0.000;0.000;2023-04-16T01:46:41;9.18;;;3.30;;
70761;SDS011;58360;0.000;0.000;2023-04-16T01:49:08;9.55;;;1.95;;
70761;SDS011;58360;0.000;0.000;2023-04-16T01:51:33;9.15;;;2.40;;
70761;SDS011;58360;0.000;0.000;2023-04-16T01:53:59;5.82;;;1.90;;
70761;SDS011;58360;0.000;0.000;2023-04-16T01:56:25;9.05;;;2.30;;
70761;SDS011;58360;0.000;0.000;2023-04-16T01:58:51;8.38;;;1.63;;
70761;SDS011;58360;0.000;0.000;2023-04-16T02:01:17;6.03;;;2.17;;
70761;SDS011;58360;0.000;0.000;2023-04-16T02:03:43;7.95;;;1.70;;
70761;SDS011;58360;0.000;0.000;2023-04-16T02:06:08;9.07;;;2.25;;
70761;SDS011;58360;0.000;0.000;2023-04-16T02:08:34;9.02;;;2.35;;
70761;SDS011;58360;0.000;0.000;2023-04-16T02:11:00;12.52;;;2.53;;
70761;SDS011;58360;0.000;0.000;2023-04-16T02:13:25;5.75;;;1.70;;
70761;SDS011;58360;0.000;0.000;2023-04-16T02:15:51;7.40;;;1.88;;
70761;SDS011;58360;0.000;0.000;2023-04-16T02:18:17;7.65;;;2.20;;
70761;SDS011;58360;0.000;0.000;2023-04-16T02:20:43;10.98;;;2.30;;
70761;SDS011;58360;0.000;0.000;2023-04-16T02:23:10;5.53;;;1.70;;
70761;SDS011;58360;0.000;0.000;2023-04-16T02:25:39;5.90;;;2.35;;
70761;SDS011;58360;0.000;0.000;2023-04-16T02:28:07;8.80;;;2.13;;
70761;SDS011;58360;0.000;0.000;2023-04-16T02:30:34;6.95;;;2.03;;
70761;SDS011;58360;0.000;0.000;2023-04-16T02:33:00;6.43;;;2.30;;
70761;SDS011;58360;0.000;0.000;2023-04-16T02:35:29;7.95;;;2.60;;
70761;SDS011;58360;0.000;0.000;2023-04-16T02:38:01;6.18;;;2.10;;
70761;SDS011;58360;0.000;0.000;2023-04-16T02:40:29;9.90;;;3.33;;
70761;SDS011;58360;0.000;0.000;2023-04-16T02:42:55;8.05;;;2.10;;
70761;SDS011;58360;0.000;0.000;2023-04-16T02:45:20;7.35;;;2.13;;
70761;SDS011;58360;0.000;0.000;2023-04-16T02:47:48;9.23;;;2.35;;
70761;SDS011;58360;0.000;0.000;2023-04-16T02:50:14;6.95;;;2.17;;
70761;SDS011;58360;0.000;0.000;2023-04-16T02:52:40;12.27;;;2.53;;
70761;SDS011;58360;0.000;0.000;2023-04-16T02:55:06;11.25;;;2.60;;
70761;SDS011;58360;0.000;0.000;2023-04-16T02:57:33;8.27;;;2.55;;
70761;SDS011;58360;0.000;0.000;2023-04-16T02:59:58;8.77;;;3.13;;
70761;SDS011;58360;0.000;0.000;2023-04-16T03:02:24;7.63;;;3.42;;
70761;SDS011;58360;0.000;0.000;2023-04-16T03:04:51;12.95;;;2.85;;
70761;SDS011;58360;0.000;0.000;2023-04-16T03:07:17;12.23;;;3.15;;
70761;SDS011;58360;0.000;0.000;2023-04-16T03:09:43;8.00;;;2.70;;
70761;SDS011;58360;0.000;0.000;2023-04-16T03:12:08;7.30;;;3.25;;
70761;SDS011;58360;0.000;0.000;2023-04-16T03:14:34;10.00;;;3.38;;
70761;SDS011;58360;0.000;0.000;2023-04-16T03:17:00;6.25;;;2.95;;
70761;SDS011;58360;0.000;0.000;2023-04-16T03:19:26;17.15;;;4.47;;
70761;SDS011;58360;0.000;0.000;2023-04-16T03:21:51;10.38;;;3.38;;
70761;SDS011;58360;0.000;0.000;2023-04-16T03:24:17;11.20;;;3.20;;
70761;SDS011;58360;0.000;0.000;2023-04-16T03:26:43;8.30;;;3.65;;
70761;SDS011;58360;0.000;0.000;2023-04-16T03:29:08;12.23;;;3.60;;
70761;SDS011;58360;0.000;0.000;2023-04-16T03:31:34;8.07;;;3.45;;
70761;SDS011;58360;0.000;0.000;2023-04-16T03:34:00;11.52;;;3.63;;
70761;SDS011;58360;0.000;0.000;2023-04-16T03:36:25;10.23;;;3.83;;
70761;SDS011;58360;0.000;0.000;2023-04-16T03:38:51;12.13;;;4.30;;
70761;SDS011;58360;0.000;0.000;2023-04-16T03:41:17;12.57;;;4.00;;
70761;SDS011;58360;0.000;0.000;2023-04-16T03:43:43;10.68;;;3.90;;
70761;SDS011;58360;0.000;0.000;2023-04-16T03:46:08;8.13;;;3.63;;
70761;SDS011;58360;0.000;0.000;2023-04-16T03:48:34;11.63;;;4.68;;
70761;SDS011;58360;0.000;0.000;2023-04-16T03:51:00;10.93;;;4.20;;
70761;SDS011;58360;0.000;0.000;2023-04-16T03:53:26;12.63;;;4.95;;
70761;SDS011;58360;0.000;0.000;2023-04-16T03:55:52;10.90;;;4.70;;
70761;SDS011;58360;0.000;0.000;2023-04-16T03:58:18;9.05;;;4.25;;
70761;SDS011;58360;0.000;0.000;2023-04-16T04:00:44;9.15;;;3.65;;
70761;SDS011;58360;0.000;0.000;2023-04-16T04:03:10;9.63;;;4.63;;
70761;SDS011;58360;0.000;0.000;2023-04-16T04:05:39;14.98;;;4.38;;
70761;SDS011;58360;0.000;0.000;2023-04-16T04:08:06;9.93;;;4.30;;
70761;SDS011;58360;0.000;0.000;2023-04-16T04:10:32;18.25;;;4.57;;
70761;SDS011;58360;0.000;0.000;2023-04-16T04:13:01;15.68;;;3.70;;
70761;SDS011;58360;0.000;0.000;2023-04-16T04:15:28;12.68;;;4.75;;
70761;SDS011;58360;0.000;0.000;2023-04-16T04:17:54;12.20;;;4.30;;
70761;SDS011;58360;0.000;0.000;2023-04-16T04:20:21;10.90;;;4.00;;
70761;SDS011;58360;0.000;0.000;2023-04-16T04:22:48;9.25;;;4.20;;
70761;SDS011;58360;0.000;0.000;2023-04-16T04:25:14;13.27;;;3.83;;
70761;SDS011;58360;0.000;0.000;2023-04-16T04:27:40;7.15;;;3.60;;
70761;SDS011;58360;0.000;0.000;2023-04-16T04:30:06;11.40;;;4.13;;
70761;SDS011;58360;0.000;0.000;2023-04-16T04:32:32;9.32;;;3.55;;
70761;SDS011;58360;0.000;0.000;2023-04-16T04:35:01;14.90;;;3.55;;
70761;SDS011;58360;0.000;0.000;2023-04-16T04:37:27;12.88;;;3.83;;
70761;SDS011;58360;0.000;0.000;2023-04-16T04:39:53;10.73;;;3.80;;
70761;SDS011;58360;0.000;0.000;2023-04-16T04:42:19;10.20;;;3.30;;
70761;SDS011;58360;0.000;0.000;2023-04-16T04:44:46;12.55;;;3.60;;
70761;SDS011;58360;0.000;0.000;2023-04-16T04:47:12;9.93;;;3.75;;
70761;SDS011;58360;0.000;0.000;2023-04-16T04:49:38;8.45;;;3.22;;
70761;SDS011;58360;0.000;0.000;2023-04-16T04:52:05;16.88;;;3.33;;
70761;SDS011;58360;0.000;0.000;2023-04-16T04:54:31;6.47;;;3.10;;
70761;SDS011;58360;0.000;0.000;2023-04-16T04:56:57;8.75;;;3.25;;
70761;SDS011;58360;0.000;0.000;2023-04-16T04:59:23;7.03;;;3.05;;
70761;SDS011;58360;0.000;0.000;2023-04-16T05:01:49;9.65;;;3.08;;
70761;SDS011;58360;0.000;0.000;2023-04-16T05:04:15;12.13;;;3.75;;
70761;SDS011;58360;0.000;0.000;2023-04-16T05:06:41;7.30;;;3.05;;
70761;SDS011;58360;0.000;0.000;2023-04-16T05:09:07;10.32;;;3.28;;
70761;SDS011;58360;0.000;0.000;2023-04-16T05:11:36;11.55;;;3.60;;
70761;SDS011;58360;0.000;0.000;2023-04-16T05:14:03;11.82;;;3.10;;
70761;SDS011;58360;0.000;0.000;2023-04-16T05:16:28;9.50;;;3.17;;
70761;SDS011;58360;0.000;0.000;2023-04-16T05:18:54;7.65;;;2.80;;
70761;SDS011;58360;0.000;0.000;2023-04-16T05:21:20;11.77;;;3.65;;
70761;SDS011;58360;0.000;0.000;2023-04-16T05:23:46;10.18;;;3.22;;
70761;SDS011;58360;0.000;0.000;2023-04-16T05:26:12;11.35;;;3.60;;
70761;SDS011;58360;0.000;0.000;2023-04-16T05:28:37;16.05;;;3.47;;
70761;SDS011;58360;0.000;0.000;2023-04-16T05:31:03;13.88;;;3.40;;
70761;SDS011;58360;0.000;0.000;2023-04-16T05:33:29;11.25;;;3.35;;
70761;SDS011;58360;0.000;0.000;2023-04-16T05:35:54;11.68;;;3.92;;
70761;SDS011;58360;0.000;0.000;2023-04-16T05:38:20;7.57;;;3.38;;
70761;SDS011;58360;0.000;0.000;2023-04-16T05:40:45;11.80;;;3.72;;
70761;SDS011;58360;0.000;0.000;2023-04-16T05:43:11;9.85;;;3.92;;
70761;SDS011;58360;0.000;0.000;2023-04-16T05:45:37;11.98;;;4.07;;
70761;SDS011;58360;0.000;0.000;2023-04-16T05:48:05;13.52;;;4.20;;
70761;SDS011;58360;0.000;0.000;2023-04-16T05:50:33;12.23;;;4.03;;
70761;SDS011;58360;0.000;0.000;2023-04-16T05:52:59;13.52;;;4.43;;
70761;SDS011;58360;0.000;0.000;2023-04-16T05:55:26;11.27;;;4.63;;
70761;SDS011;58360;0.000;0.000;2023-04-16T05:57:51;13.40;;;4.90;;
70761;SDS011;58360;0.000;0.000;2023-04-16T06:00:17;17.33;;;4.78;;
70761;SDS011;58360;0.000;0.000;2023-04-16T06:02:43;13.40;;;5.20;;
70761;SDS011;58360;0.000;0.000;2023-04-16T06:05:08;12.00;;;5.35;;
70761;SDS011;58360;0.000;0.000;2023-04-16T06:07:34;10.40;;;5.18;;
70761;SDS011;58360;0.000;0.000;2023-04-16T06:10:00;12.45;;;5.28;;
70761;SDS011;58360;0.000;0.000;2023-04-16T06:12:25;16.10;;;6.25;;
70761;SDS011;58360;0.000;0.000;2023-04-16T06:14:51;11.52;;;5.75;;
70761;SDS011;58360;0.000;0.000;2023-04-16T06:17:17;13.00;;;5.97;;
70761;SDS011;58360;0.000;0.000;2023-04-16T06:19:43;11.15;;;5.65;;
70761;SDS011;58360;0.000;0.000;2023-04-16T06:22:09;11.88;;;4.75;;
70761;SDS011;58360;0.000;0.000;2023-04-16T06:24:35;12.95;;;5.47;;
70761;SDS011;58360;0.000;0.000;2023-04-16T06:27:00;11.63;;;4.90;;
70761;SDS011;58360;0.000;0.000;2023-04-16T06:29:27;14.82;;;5.25;;
70761;SDS011;58360;0.000;0.000;2023-04-16T06:31:52;10.02;;;4.95;;
70761;SDS011;58360;0.000;0.000;2023-04-16T06:34:19;14.20;;;5.43;;
70761;SDS011;58360;0.000;0.000;2023-04-16T06:36:44;10.57;;;5.15;;
70761;SDS011;58360;0.000;0.000;2023-04-16T06:39:10;11.88;;;4.70;;
70761;SDS011;58360;0.000;0.000;2023-04-16T06:41:36;13.18;;;5.03;;
70761;SDS011;58360;0.000;0.000;2023-04-16T06:44:01;15.55;;;4.85;;
70761;SDS011;58360;0.000;0.000;2023-04-16T06:46:27;14.55;;;5.55;;
70761;SDS011;58360;0.000;0.000;2023-04-16T06:48:53;12.98;;;4.85;;
70761;SDS011;58360;0.000;0.000;2023-04-16T06:51:18;13.77;;;5.00;;
70761;SDS011;58360;0.000;0.000;2023-04-16T06:53:44;10.77;;;4.78;;
70761;SDS011;58360;0.000;0.000;2023-04-16T06:56:10;15.45;;;4.72;;
70761;SDS011;58360;0.000;0.000;2023-04-16T06:58:35;15.15;;;4.50;;
70761;SDS011;58360;0.000;0.000;2023-04-16T07:01:01;10.82;;;4.13;;
70761;SDS011;58360;0.000;0.000;2023-04-16T07:03:27;12.18;;;3.92;;
70761;SDS011;58360;0.000;0.000;2023-04-16T07:05:53;11.95;;;4.70;;
70761;SDS011;58360;0.000;0.000;2023-04-16T07:08:18;10.70;;;4.45;;
70761;SDS011;58360;0.000;0.000;2023-04-16T07:10:44;11.77;;;4.95;;
70761;SDS011;58360;0.000;0.000;2023-04-16T07:13:09;11.45;;;4.60;;
70761;SDS011;58360;0.000;0.000;2023-04-16T07:15:35;17.75;;;5.03;;
70761;SDS011;58360;0.000;0.000;2023-04-16T07:18:01;15.85;;;5.43;;
70761;SDS011;58360;0.000;0.000;2023-04-16T07:20:26;9.77;;;5.22;;
70761;SDS011;58360;0.000;0.000;2023-04-16T07:22:52;17.42;;;5.03;;
70761;SDS011;58360;0.000;0.000;2023-04-16T07:25:18;12.45;;;5.40;;
70761;SDS011;58360;0.000;0.000;2023-04-16T07:27:43;12.25;;;4.72;;
70761;SDS011;58360;0.000;0.000;2023-04-16T07:30:09;12.02;;;5.60;;
70761;SDS011;58360;0.000;0.000;2023-04-16T07:32:35;12.35;;;5.30;;
70761;SDS011;58360;0.000;0.000;2023-04-16T07:35:01;14.80;;;5.82;;
70761;SDS011;58360;0.000;0.000;2023-04-16T07:37:27;17.25;;;6.32;;
70761;SDS011;58360;0.000;0.000;2023-04-16T07:39:53;12.57;;;5.32;;
70761;SDS011;58360;0.000;0.000;2023-04-16T07:42:21;15.00;;;5.88;;
70761;SDS011;58360;0.000;0.000;2023-04-16T07:44:47;17.80;;;6.05;;
70761;SDS011;58360;0.000;0.000;2023-04-16T07:47:13;13.85;;;6.07;;
70761;SDS011;58360;0.000;0.000;2023-04-16T07:49:38;18.30;;;5.53;;
70761;SDS011;58360;0.000;0.000;2023-04-16T07:52:04;17.27;;;6.10;;
70761;SDS011;58360;0.000;0.000;2023-04-16T07:54:30;14.18;;;5.13;;
70761;SDS011;58360;0.000;0.000;2023-04-16T07:56:56;12.63;;;5.25;;
70761;SDS011;58360;0.000;0.000;2023-04-16T07:59:21;16.95;;;6.57;;
70761;SDS011;58360;0.000;0.000;2023-04-16T08:01:47;14.68;;;6.53;;
70761;SDS011;58360;0.000;0.000;2023-04-16T08:04:13;16.02;;;6.28;;
70761;SDS011;58360;0.000;0.000;2023-04-16T08:06:41;16.48;;;7.28;;
70761;SDS011;58360;0.000;0.000;2023-04-16T08:09:06;25.67;;;8.13;;
70761;SDS011;58360;0.000;0.000;2023-04-16T08:11:32;20.67;;;6.20;;
70761;SDS011;58360;0.000;0.000;2023-04-16T08:13:58;16.75;;;6.30;;
70761;SDS011;58360;0.000;0.000;2023-04-16T08:16:23;16.95;;;7.15;;
70761;SDS011;58360;0.000;0.000;2023-04-16T08:18:49;19.33;;;7.13;;
70761;SDS011;58360;0.000;0.000;2023-04-16T08:21:15;24.25;;;7.40;;
70761;SDS011;58360;0.000;0.000;2023-04-16T08:23:40;19.75;;;7.03;;
70761;SDS011;58360;0.000;0.000;2023-04-16T08:26:06;14.88;;;5.80;;
70761;SDS011;58360;0.000;0.000;2023-04-16T08:28:31;19.98;;;7.22;;
70761;SDS011;58360;0.000;0.000;2023-04-16T08:30:57;17.58;;;6.45;;
70761;SDS011;58360;0.000;0.000;2023-04-16T08:33:23;18.02;;;7.05;;
70761;SDS011;58360;0.000;0.000;2023-04-16T08:35:48;16.20;;;6.60;;
70761;SDS011;58360;0.000;0.000;2023-04-16T08:38:14;24.08;;;7.65;;
70761;SDS011;58360;0.000;0.000;2023-04-16T08:40:40;19.55;;;7.00;;
70761;SDS011;58360;0.000;0.000;2023-04-16T08:43:09;17.60;;;7.18;;
70761;SDS011;58360;0.000;0.000;2023-04-16T08:45:39;17.55;;;7.60;;
70761;SDS011;58360;0.000;0.000;2023-04-16T08:48:08;21.25;;;7.60;;
70761;SDS011;58360;0.000;0.000;2023-04-16T08:50:35;23.55;;;7.57;;
70761;SDS011;58360;0.000;0.000;2023-04-16T08:53:05;26.90;;;8.35;;
70761;SDS011;58360;0.000;0.000;2023-04-16T08:58:04;17.27;;;6.38;;
70761;SDS011;58360;0.000;0.000;2023-04-16T09:00:52;15.23;;;6.95;;
70761;SDS011;58360;0.000;0.000;2023-04-16T09:03:19;24.63;;;8.23;;
70761;SDS011;58360;0.000;0.000;2023-04-16T09:05:45;19.50;;;7.20;;
70761;SDS011;58360;0.000;0.000;2023-04-16T09:08:13;24.13;;;7.45;;
70761;SDS011;58360;0.000;0.000;2023-04-16T09:10:39;14.90;;;5.95;;
70761;SDS011;58360;0.000;0.000;2023-04-16T09:13:04;21.45;;;6.00;;
70761;SDS011;58360;0.000;0.000;2023-04-16T09:15:32;24.08;;;6.82;;
70761;SDS011;58360;0.000;0.000;2023-04-16T09:17:59;27.92;;;7.15;;
70761;SDS011;58360;0.000;0.000;2023-04-16T09:20:25;24.92;;;7.40;;
70761;SDS011;58360;0.000;0.000;2023-04-16T09:22:50;21.42;;;6.65;;
70761;SDS011;58360;0.000;0.000;2023-04-16T09:25:16;31.45;;;9.25;;
70761;SDS011;58360;0.000;0.000;2023-04-16T09:27:44;26.52;;;7.32;;
70761;SDS011;58360;0.000;0.000;2023-04-16T09:30:20;13.38;;;6.40;;
70761;SDS011;58360;0.000;0.000;2023-04-16T09:32:46;21.95;;;6.80;;
70761;SDS011;58360;0.000;0.000;2023-04-16T09:35:12;19.48;;;7.88;;
70761;SDS011;58360;0.000;0.000;2023-04-16T09:37:39;19.30;;;6.35;;
70761;SDS011;58360;0.000;0.000;2023-04-16T09:40:05;21.23;;;6.78;;
70761;SDS011;58360;0.000;0.000;2023-04-16T09:42:32;22.65;;;5.88;;
70761;SDS011;58360;0.000;0.000;2023-04-16T09:45:00;15.23;;;5.32;;
70761;SDS011;58360;0.000;0.000;2023-04-16T09:47:37;18.02;;;6.03;;
70761;SDS011;58360;0.000;0.000;2023-04-16T09:50:05;14.70;;;6.18;;
70761;SDS011;58360;0.000;0.000;2023-04-16T09:52:34;18.92;;;7.07;;
70761;SDS011;58360;0.000;0.000;2023-04-16T09:55:01;18.92;;;6.40;;
70761;SDS011;58360;0.000;0.000;2023-04-16T09:57:26;14.60;;;6.75;;
70761;SDS011;58360;0.000;0.000;2023-04-16T09:59:54;28.85;;;8.55;;
70761;SDS011;58360;0.000;0.000;2023-04-16T10:02:29;13.85;;;6.05;;
70761;SDS011;58360;0.000;0.000;2023-04-16T10:04:55;16.95;;;5.57;;
70761;SDS011;58360;0.000;0.000;2023-04-16T10:07:21;16.13;;;6.03;;
70761;SDS011;58360;0.000;0.000;2023-04-16T10:09:52;15.23;;;6.50;;
70761;SDS011;58360;0.000;0.000;2023-04-16T10:12:19;14.32;;;6.05;;
70761;SDS011;58360;0.000;0.000;2023-04-16T10:14:45;13.13;;;6.18;;
70761;SDS011;58360;0.000;0.000;2023-04-16T10:17:11;15.10;;;6.47;;
70761;SDS011;58360;0.000;0.000;2023-04-16T10:19:37;12.75;;;6.32;;
70761;SDS011;58360;0.000;0.000;2023-04-16T10:22:04;20.73;;;7.55;;
70761;SDS011;58360;0.000;0.000;2023-04-16T10:24:30;20.75;;;6.97;;
70761;SDS011;58360;0.000;0.000;2023-04-16T10:26:57;18.98;;;7.22;;
70761;SDS011;58360;0.000;0.000;2023-04-16T10:29:28;15.32;;;7.55;;
70761;SDS011;58360;0.000;0.000;2023-04-16T10:31:55;26.73;;;7.50;;
70761;SDS011;58360;0.000;0.000;2023-04-16T10:34:22;19.23;;;7.53;;
70761;SDS011;58360;0.000;0.000;2023-04-16T10:36:49;20.80;;;7.35;;
70761;SDS011;58360;0.000;0.000;2023-04-16T10:39:20;19.77;;;7.45;;
70761;SDS011;58360;0.000;0.000;2023-04-16T10:42:05;21.15;;;7.25;;
70761;SDS011;58360;0.000;0.000;2023-04-16T10:44:35;22.50;;;7.38;;
70761;SDS011;58360;0.000;0.000;2023-04-16T10:47:01;17.63;;;7.68;;
70761;SDS011;58360;0.000;0.000;2023-04-16T10:49:33;26.55;;;8.50;;
70761;SDS011;58360;0.000;0.000;2023-04-16T10:52:00;13.43;;;7.18;;
70761;SDS011;58360;0.000;0.000;2023-04-16T10:54:34;16.70;;;7.22;;
70761;SDS011;58360;0.000;0.000;2023-04-16T10:57:04;14.93;;;7.50;;
70761;SDS011;58360;0.000;0.000;2023-04-16T10:59:34;18.63;;;7.95;;
70761;SDS011;58360;0.000;0.000;2023-04-16T11:02:11;21.83;;;7.28;;
70761;SDS011;58360;0.000;0.000;2023-04-16T11:04:39;21.98;;;12.23;;
70761;SDS011;58360;0.000;0.000;2023-04-16T11:12:40;19.77;;;9.23;;
70761;SDS011;58360;0.000;0.000;2023-04-16T11:15:15;19.23;;;10.52;;
70761;SDS011;58360;0.000;0.000;2023-04-16T11:17:46;21.90;;;10.05;;
70761;SDS011;58360;0.000;0.000;2023-04-16T11:20:23;14.05;;;7.68;;
70761;SDS011;58360;0.000;0.000;2023-04-16T11:22:50;30.60;;;17.55;;
70761;SDS011;58360;0.000;0.000;2023-04-16T11:25:24;24.67;;;14.20;;
70761;SDS011;58360;0.000;0.000;2023-04-16T11:27:51;20.98;;;11.40;;
70761;SDS011;58360;0.000;0.000;2023-04-16T11:30:18;25.27;;;12.38;;
70761;SDS011;58360;0.000;0.000;2023-04-16T11:32:52;25.50;;;13.60;;
70761;SDS011;58360;0.000;0.000;2023-04-16T11:35:18;19.83;;;11.27;;
70761;SDS011;58360;0.000;0.000;2023-04-16T11:37:44;24.60;;;13.07;;
70761;SDS011;58360;0.000;0.000;2023-04-16T11:40:11;30.85;;;13.52;;
70761;SDS011;58360;0.000;0.000;2023-04-16T11:42:37;23.25;;;14.05;;
70761;SDS011;58360;0.000;0.000;2023-04-16T11:45:08;26.23;;;13.32;;
70761;SDS011;58360;0.000;0.000;2023-04-16T11:47:48;24.15;;;13.07;;
70761;SDS011;58360;0.000;0.000;2023-04-16T11:50:27;21.55;;;10.90;;
70761;SDS011;58360;0.000;0.000;2023-04-16T11:52:54;21.70;;;11.40;;
70761;SDS011;58360;0.000;0.000;2023-04-16T11:55:21;18.35;;;11.27;;
70761;SDS011;58360;0.000;0.000;2023-04-16T11:57:47;28.05;;;12.90;;
70761;SDS011;58360;0.000;0.000;2023-04-16T12:00:14;22.05;;;11.40;;
70761;SDS011;58360;0.000;0.000;2023-04-16T12:02:44;23.27;;;12.18;;
70761;SDS011;58360;0.000;0.000;2023-04-16T12:08:00;19.42;;;10.85;;
70761;SDS011;58360;0.000;0.000;2023-04-16T12:10:27;27.45;;;12.25;;
70761;SDS011;58360;0.000;0.000;2023-04-16T12:12:53;20.77;;;10.70;;
70761;SDS011;58360;0.000;0.000;2023-04-16T12:18:27;24.90;;;13.98;;
70761;SDS011;58360;0.000;0.000;2023-04-16T12:20:53;27.60;;;12.68;;
70761;SDS011;58360;0.000;0.000;2023-04-16T12:23:23;21.05;;;10.60;;
70761;SDS011;58360;0.000;0.000;2023-04-16T12:25:54;21.60;;;12.40;;
70761;SDS011;58360;0.000;0.000;2023-04-16T12:30:52;41.40;;;20.13;;
70761;SDS011;58360;0.000;0.000;2023-04-16T12:33:18;26.10;;;9.93;;
70761;SDS011;58360;0.000;0.000;2023-04-16T12:35:45;25.80;;;12.43;;
70761;SDS011;58360;0.000;0.000;2023-04-16T12:38:11;25.90;;;10.57;;
70761;SDS011;58360;0.000;0.000;2023-04-16T12:40:39;30.92;;;10.45;;
70761;SDS011;58360;0.000;0.000;2023-04-16T12:43:05;21.40;;;9.93;;
70761;SDS011;58360;0.000;0.000;2023-04-16T12:45:30;19.52;;;11.65;;
70761;SDS011;58360;0.000;0.000;2023-04-16T12:47:56;26.15;;;11.30;;
70761;SDS011;58360;0.000;0.000;2023-04-16T12:50:22;25.75;;;12.00;;
70761;SDS011;58360;0.000;0.000;2023-04-16T12:52:47;19.58;;;9.20;;
70761;SDS011;58360;0.000;0.000;2023-04-16T12:55:13;19.52;;;9.07;;
70761;SDS011;58360;0.000;0.000;2023-04-16T12:57:39;23.40;;;9.23;;
70761;SDS011;58360;0.000;0.000;2023-04-16T13:00:05;19.98;;;10.90;;
70761;SDS011;58360;0.000;0.000;2023-04-16T13:02:32;21.95;;;12.48;;
70761;SDS011;58360;0.000;0.000;2023-04-16T13:04:58;27.02;;;13.98;;
70761;SDS011;58360;0.000;0.000;2023-04-16T13:07:24;18.98;;;11.00;;
70761;SDS011;58360;0.000;0.000;2023-04-16T13:09:50;27.95;;;12.95;;
70761;SDS011;58360;0.000;0.000;2023-04-16T13:12:16;24.15;;;11.63;;
70761;SDS011;58360;0.000;0.000;2023-04-16T13:14:42;24.00;;;11.32;;
70761;SDS011;58360;0.000;0.000;2023-04-16T13:17:08;23.50;;;11.45;;
70761;SDS011;58360;0.000;0.000;2023-04-16T13:19:34;22.10;;;13.00;;
70761;SDS011;58360;0.000;0.000;2023-04-16T13:21:59;20.77;;;9.68;;
70761;SDS011;58360;0.000;0.000;2023-04-16T13:24:25;15.73;;;9.55;;
70761;SDS011;58360;0.000;0.000;2023-04-16T13:26:51;19.45;;;9.82;;
70761;SDS011;58360;0.000;0.000;2023-04-16T13:29:20;20.77;;;10.65;;
70761;SDS011;58360;0.000;0.000;2023-04-16T13:31:46;18.40;;;11.07;;
70761;SDS011;58360;0.000;0.000;2023-04-16T13:34:12;21.83;;;10.20;;
70761;SDS011;58360;0.000;0.000;2023-04-16T13:36:38;18.55;;;9.93;;
70761;SDS011;58360;0.000;0.000;2023-04-16T13:39:04;17.70;;;9.57;;
70761;SDS011;58360;0.000;0.000;2023-04-16T13:41:34;19.50;;;10.32;;
70761;SDS011;58360;0.000;0.000;2023-04-16T13:44:00;24.50;;;9.25;;
70761;SDS011;58360;0.000;0.000;2023-04-16T13:46:26;23.73;;;11.00;;
70761;SDS011;58360;0.000;0.000;2023-04-16T13:48:53;23.45;;;11.02;;
70761;SDS011;58360;0.000;0.000;2023-04-16T13:51:18;20.25;;;10.15;;
70761;SDS011;58360;0.000;0.000;2023-04-16T13:53:44;16.38;;;8.60;;
70761;SDS011;58360;0.000;0.000;2023-04-16T13:56:10;21.85;;;9.40;;
70761;SDS011;58360;0.000;0.000;2023-04-16T13:58:36;14.18;;;8.45;;
70761;SDS011;58360;0.000;0.000;2023-04-16T14:01:02;17.27;;;9.65;;
70761;SDS011;58360;0.000;0.000;2023-04-16T14:03:28;17.13;;;9.35;;
70761;SDS011;58360;0.000;0.000;2023-04-16T14:05:53;16.92;;;9.70;;
70761;SDS011;58360;0.000;0.000;2023-04-16T14:08:19;18.98;;;9.43;;
70761;SDS011;58360;0.000;0.000;2023-04-16T14:10:45;20.00;;;11.43;;
70761;SDS011;58360;0.000;0.000;2023-04-16T14:13:11;21.45;;;10.63;;
70761;SDS011;58360;0.000;0.000;2023-04-16T14:15:37;14.93;;;9.43;;
70761;SDS011;58360;0.000;0.000;2023-04-16T14:18:03;21.42;;;9.40;;
70761;SDS011;58360;0.000;0.000;2023-04-16T14:20:29;18.85;;;9.55;;
70761;SDS011;58360;0.000;0.000;2023-04-16T14:22:55;15.52;;;9.68;;
70761;SDS011;58360;0.000;0.000;2023-04-16T14:25:21;22.58;;;10.48;;
70761;SDS011;58360;0.000;0.000;2023-04-16T14:27:47;21.65;;;9.63;;
70761;SDS011;58360;0.000;0.000;2023-04-16T14:30:12;18.10;;;9.50;;
70761;SDS011;58360;0.000;0.000;2023-04-16T14:32:38;19.25;;;9.55;;
70761;SDS011;58360;0.000;0.000;2023-04-16T14:35:04;13.88;;;9.15;;
70761;SDS011;58360;0.000;0.000;2023-04-16T14:37:30;18.30;;;9.10;;
70761;SDS011;58360;0.000;0.000;2023-04-16T14:39:59;18.75;;;8.85;;
70761;SDS011;58360;0.000;0.000;2023-04-16T14:42:25;21.23;;;8.73;;
70761;SDS011;58360;0.000;0.000;2023-04-16T14:44:51;20.02;;;9.73;;
70761;SDS011;58360;0.000;0.000;2023-04-16T14:47:17;14.43;;;8.60;;
70761;SDS011;58360;0.000;0.000;2023-04-16T14:49:43;14.32;;;8.63;;
70761;SDS011;58360;0.000;0.000;2023-04-16T14:52:08;19.63;;;9.00;;
70761;SDS011;58360;0.000;0.000;2023-04-16T14:54:34;15.70;;;9.25;;
70761;SDS011;58360;0.000;0.000;2023-04-16T14:57:00;14.20;;;9.07;;
70761;SDS011;58360;0.000;0.000;2023-04-16T14:59:26;19.92;;;9.05;;
70761;SDS011;58360;0.000;0.000;2023-04-16T15:01:53;13.65;;;8.68;;